Time;durP1;ratioP1;P1;durP2;ratioP2;P2;SDS_P1;SDS_P2;PMS_P1;PMS_P2;Temp;Humidity;BMP_temperature;BMP_pressure;BME280_temperature;BME280_humidity;BME280_pressure;Samples;Min_cycle;Max_cycle;Signal;HPM_P1;HPM_P2
2021/12/30 00:00:01;;;;;;;17.50;5.38;;;7.70;99.90;;;;;;2108597;67;20729;-65
2021/12/30 00:02:44;;;;;;;21.55;6.10;;;7.80;99.90;;;;;;2110983;67;20199;-65
2021/12/30 00:05:28;;;;;;;25.42;6.20;;;7.80;99.90;;;;;;2115764;67;20221;-66
2021/12/30 00:08:10;;;;;;;24.23;5.60;;;7.80;99.90;;;;;;2119948;67;20256;-64
2021/12/30 00:10:53;;;;;;;24.42;5.82;;;7.70;99.90;;;;;;2096204;68;20211;-65
2021/12/30 00:13:35;;;;;;;24.83;6.18;;;7.80;99.90;;;;;;2098385;68;20315;-64
2021/12/30 00:16:19;;;;;;;25.70;5.90;;;7.80;99.90;;;;;;2092055;68;20948;-64
2021/12/30 00:19:04;;;;;;;23.33;6.00;;;7.90;99.90;;;;;;2111280;67;20686;-65
2021/12/30 00:21:46;;;;;;;33.30;7.20;;;7.90;99.90;;;;;;2125490;67;20763;-65
2021/12/30 00:24:29;;;;;;;20.42;6.45;;;7.80;99.90;;;;;;2118570;67;20376;-64
2021/12/30 00:27:13;;;;;;;33.60;8.25;;;7.80;99.90;;;;;;2136042;67;20272;-65
2021/12/30 00:29:56;;;;;;;33.05;7.53;;;7.90;99.90;;;;;;2125616;67;20353;-65
2021/12/30 00:32:37;;;;;;;32.65;7.13;;;7.90;99.90;;;;;;2119845;67;20266;-64
2021/12/30 00:35:20;;;;;;;34.58;7.60;;;7.90;99.90;;;;;;2119463;67;20204;-65
2021/12/30 00:38:06;;;;;;;35.38;7.78;;;8.00;99.90;;;;;;2136616;67;20337;-65
2021/12/30 00:40:49;;;;;;;36.70;8.85;;;7.80;99.90;;;;;;2138397;66;20178;-65
2021/12/30 00:43:34;;;;;;;42.20;8.65;;;7.90;99.90;;;;;;2125651;67;20324;-65
2021/12/30 00:46:16;;;;;;;36.58;7.75;;;7.90;99.90;;;;;;2132646;67;20196;-65
2021/12/30 00:48:59;;;;;;;31.30;8.27;;;7.80;99.90;;;;;;2131025;67;20705;-64
2021/12/30 00:51:43;;;;;;;37.13;8.07;;;7.80;99.90;;;;;;2132594;67;20914;-64
2021/12/30 00:54:25;;;;;;;24.20;7.60;;;7.90;99.90;;;;;;2138012;66;20323;-65
2021/12/30 00:57:07;;;;;;;32.50;9.60;;;7.80;99.90;;;;;;2139115;67;20744;-65
2021/12/30 00:59:49;;;;;;;30.50;7.10;;;7.80;99.90;;;;;;2137595;67;20171;-65
2021/12/30 01:02:31;;;;;;;34.45;9.05;;;7.80;99.90;;;;;;2139755;67;20263;-65
2021/12/30 01:05:14;;;;;;;33.55;8.95;;;7.90;99.90;;;;;;2146595;66;20326;-65
2021/12/30 01:07:59;;;;;;;30.05;7.97;;;7.90;99.90;;;;;;2142128;66;20210;-64
2021/12/30 01:10:43;;;;;;;44.25;9.20;;;7.90;99.90;;;;;;2132465;67;20233;-65
2021/12/30 01:13:27;;;;;;;34.85;9.27;;;7.90;99.90;;;;;;2145501;66;20571;-65
2021/12/30 01:16:22;;;;;;;32.92;8.07;;;7.90;99.90;;;;;;2146904;66;20733;-64
2021/12/30 01:19:42;;;;;;;27.48;8.43;;;7.90;99.90;;;;;;2154067;66;20262;-64
2021/12/30 01:22:28;;;;;;;42.05;8.70;;;7.80;99.90;;;;;;2146855;66;20255;-65
2021/12/30 01:25:11;;;;;;;39.47;9.38;;;7.80;99.90;;;;;;2132302;67;20254;-66
2021/12/30 01:27:57;;;;;;;40.42;9.48;;;7.80;99.90;;;;;;2132418;67;20665;-64
2021/12/30 01:30:41;;;;;;;;;;;7.70;99.90;;;;;;2149343;66;20220;-64
2021/12/30 01:33:23;;;;;;;36.42;9.02;;;7.70;99.90;;;;;;2156575;66;20546;-65
2021/12/30 01:36:05;;;;;;;35.05;8.50;;;7.70;99.90;;;;;;2149382;66;20308;-64
2021/12/30 01:38:48;;;;;;;40.08;8.93;;;7.70;99.90;;;;;;2146709;66;20315;-65
2021/12/30 01:41:31;;;;;;;31.20;8.18;;;7.70;99.90;;;;;;2151524;66;20315;-65
2021/12/30 01:44:13;;;;;;;45.05;9.35;;;7.70;99.90;;;;;;2165330;65;20234;-66
2021/12/30 01:46:55;;;;;;;40.83;9.40;;;7.70;99.90;;;;;;2157946;66;20193;-65
2021/12/30 01:49:37;;;;;;;37.85;8.30;;;7.70;99.90;;;;;;2153555;66;20299;-64
2021/12/30 01:52:19;;;;;;;43.35;9.30;;;7.60;99.90;;;;;;2146205;66;20169;-65
2021/12/30 01:55:03;;;;;;;31.60;7.93;;;7.60;99.90;;;;;;2132055;67;20209;-64
2021/12/30 01:57:48;;;;;;;34.33;9.18;;;7.60;99.90;;;;;;2125151;67;20734;-66
2021/12/30 02:00:37;;;;;;;31.10;8.88;;;7.60;99.90;;;;;;2124670;67;20331;-65
2021/12/30 02:03:21;;;;;;;36.78;7.65;;;7.60;99.90;;;;;;2122485;67;20173;-65
2021/12/30 02:06:03;;;;;;;37.53;8.80;;;7.60;99.90;;;;;;2098858;67;20559;-64
2021/12/30 02:08:47;;;;;;;32.30;7.13;;;7.60;99.90;;;;;;2119359;66;20332;-65
2021/12/30 02:11:32;;;;;;;34.78;8.07;;;7.70;99.90;;;;;;2139789;66;20200;-64
2021/12/30 02:14:16;;;;;;;39.50;8.35;;;7.60;99.90;;;;;;2139028;66;20341;-64
2021/12/30 02:16:58;;;;;;;30.60;8.23;;;7.60;99.90;;;;;;2132180;67;20315;-64
2021/12/30 02:19:40;;;;;;;32.50;8.48;;;7.60;99.90;;;;;;2125342;67;20338;-64
2021/12/30 02:22:23;;;;;;;33.50;8.10;;;7.60;99.90;;;;;;2124860;67;20200;-65
2021/12/30 02:25:07;;;;;;;;;;;7.80;99.90;;;;;;2132146;67;20436;-65
2021/12/30 02:27:49;;;;;;;34.35;7.75;;;7.60;99.90;;;;;;2139637;66;20227;-64
2021/12/30 02:30:31;;;;;;;41.13;7.80;;;7.50;99.90;;;;;;2140602;66;20351;-64
2021/12/30 02:33:13;;;;;;;35.03;8.20;;;7.50;99.90;;;;;;2146415;66;20237;-65
2021/12/30 02:35:56;;;;;;;33.95;7.25;;;7.50;99.90;;;;;;2146317;66;20333;-63
2021/12/30 02:38:42;;;;;;;41.72;8.88;;;7.50;99.90;;;;;;2133880;67;20819;-65
2021/12/30 02:41:26;;;;;;;35.92;7.95;;;7.50;99.90;;;;;;2111325;67;20429;-64
2021/12/30 02:44:11;;;;;;;44.28;8.93;;;7.40;99.90;;;;;;2131024;67;20196;-65
2021/12/30 02:46:55;;;;;;;37.85;8.05;;;7.40;99.90;;;;;;2124735;67;20222;-64
2021/12/30 02:49:41;;;;;;;39.17;9.50;;;7.40;99.90;;;;;;2125792;67;20322;-64
2021/12/30 02:52:25;;;;;;;38.15;9.00;;;7.40;99.90;;;;;;2127329;67;20172;-65
2021/12/30 02:55:08;;;;;;;37.20;9.75;;;7.50;99.90;;;;;;2122059;67;20176;-64
2021/12/30 02:57:50;;;;;;;40.22;9.25;;;7.50;99.90;;;;;;2130727;67;20332;-65
2021/12/30 03:00:31;;;;;;;33.95;8.27;;;7.50;99.90;;;;;;2140014;66;20229;-65
2021/12/30 03:03:22;;;;;;;42.78;9.68;;;7.60;99.90;;;;;;2140362;66;20283;-64
2021/12/30 03:06:07;;;;;;;34.90;8.05;;;7.60;99.90;;;;;;2147279;66;20730;-63
2021/12/30 03:08:53;;;;;;;37.85;9.05;;;7.60;99.90;;;;;;2146466;66;20352;-65
2021/12/30 03:11:35;;;;;;;45.08;9.45;;;7.70;99.90;;;;;;2123125;67;20690;-64
2021/12/30 03:14:17;;;;;;;37.53;9.35;;;7.70;99.90;;;;;;2118901;67;20228;-64
2021/12/30 03:16:59;;;;;;;44.25;10.00;;;7.70;99.90;;;;;;2125724;67;20213;-65
2021/12/30 03:19:41;;;;;;;40.72;11.00;;;7.70;99.90;;;;;;2125891;67;20239;-65
2021/12/30 03:22:23;;;;;;;40.00;10.45;;;7.70;99.90;;;;;;2106328;67;20748;-65
2021/12/30 03:25:10;;;;;;;38.03;9.73;;;7.90;99.90;;;;;;2111814;67;20195;-64
2021/12/30 03:27:54;;;;;;;38.33;10.82;;;7.90;99.90;;;;;;2122173;67;20635;-64
2021/12/30 03:30:39;;;;;;;43.10;10.80;;;7.90;99.90;;;;;;2118796;67;20350;-65
2021/12/30 03:33:20;;;;;;;41.83;11.15;;;8.00;99.90;;;;;;2117161;67;20295;-64
2021/12/30 03:36:04;;;;;;;44.40;12.98;;;8.00;99.90;;;;;;2118770;67;20333;-65
2021/12/30 03:38:50;;;;;;;44.90;12.40;;;8.10;99.90;;;;;;2120227;67;20228;-65
2021/12/30 03:41:34;;;;;;;48.97;12.40;;;8.10;99.90;;;;;;2117436;67;20251;-68
2021/12/30 03:44:16;;;;;;;42.83;14.13;;;8.10;99.90;;;;;;2123250;67;20187;-66
2021/12/30 03:47:01;;;;;;;41.78;12.35;;;8.20;99.90;;;;;;2127869;67;20321;-65
2021/12/30 03:49:45;;;;;;;48.72;13.48;;;8.20;99.90;;;;;;2118463;67;20284;-64
2021/12/30 03:52:30;;;;;;;38.63;11.98;;;8.20;99.90;;;;;;2111178;67;20211;-66
2021/12/30 03:55:13;;;;;;;40.40;11.90;;;8.20;99.90;;;;;;2118017;67;20202;-64
2021/12/30 03:57:58;;;;;;;40.20;13.20;;;8.20;99.90;;;;;;2117312;67;20651;-65
2021/12/30 04:00:43;;;;;;;39.95;15.02;;;8.30;99.90;;;;;;2117697;67;20306;-65
2021/12/30 04:03:27;;;;;;;37.83;13.68;;;8.40;99.90;;;;;;2103869;67;20358;-64
2021/12/30 04:06:13;;;;;;;46.78;14.40;;;8.40;99.90;;;;;;2106289;67;20238;-65
2021/12/30 04:08:58;;;;;;;58.10;15.27;;;8.50;99.90;;;;;;2120946;67;20221;-64
2021/12/30 04:11:40;;;;;;;44.40;14.32;;;8.50;99.90;;;;;;2131268;67;20769;-65
2021/12/30 04:14:22;;;;;;;37.72;14.02;;;8.50;99.90;;;;;;2110577;67;20298;-63
2021/12/30 04:17:04;;;;;;;45.00;14.18;;;8.50;99.90;;;;;;2111326;67;20189;-64
2021/12/30 04:19:46;;;;;;;38.67;12.10;;;8.50;99.90;;;;;;2110490;67;20338;-65
2021/12/30 04:22:28;;;;;;;36.85;11.88;;;8.50;99.90;;;;;;2104522;68;20267;-65
2021/12/30 04:25:13;;;;;;;44.90;13.35;;;8.60;99.90;;;;;;2097408;68;20302;-64
2021/12/30 04:27:55;;;;;;;38.10;13.33;;;8.70;99.90;;;;;;2104635;68;20579;-65
2021/12/30 04:30:37;;;;;;;39.08;13.20;;;8.70;99.90;;;;;;2111444;67;20226;-65
2021/12/30 04:33:19;;;;;;;40.20;11.85;;;8.90;99.90;;;;;;2098798;68;20179;-65
2021/12/30 04:36:01;;;;;;;49.10;13.63;;;8.90;99.90;;;;;;2111513;67;20174;-65
2021/12/30 04:38:43;;;;;;;47.65;13.60;;;8.90;99.90;;;;;;2114123;67;20235;-65
2021/12/30 04:41:28;;;;;;;44.35;12.20;;;8.90;99.90;;;;;;2115271;67;20339;-65
2021/12/30 04:44:09;;;;;;;54.05;13.48;;;8.90;99.90;;;;;;2104518;68;20174;-64
2021/12/30 04:46:51;;;;;;;48.58;13.95;;;8.90;99.90;;;;;;2111488;67;20361;-66
2021/12/30 04:49:33;;;;;;;43.20;14.23;;;8.90;99.90;;;;;;2122628;67;20176;-65
2021/12/30 04:52:17;;;;;;;41.92;13.15;;;9.00;99.90;;;;;;2111468;67;20249;-64
2021/12/30 04:55:01;;;;;;;50.72;13.77;;;9.00;99.90;;;;;;2121795;67;20685;-65
2021/12/30 04:57:43;;;;;;;47.67;13.57;;;9.00;99.90;;;;;;2131007;67;20180;-64
2021/12/30 05:00:25;;;;;;;44.13;14.13;;;9.00;99.90;;;;;;2143076;66;20317;-65
2021/12/30 05:03:14;;;;;;;46.07;14.73;;;9.10;99.90;;;;;;2157114;66;20446;-65
2021/12/30 05:05:56;;;;;;;;;;;9.20;99.90;;;;;;2149928;66;20352;-65
2021/12/30 05:08:38;;;;;;;53.80;17.30;;;9.30;99.90;;;;;;2161975;65;20131;-65
2021/12/30 05:11:23;;;;;;;56.75;16.30;;;9.40;99.90;;;;;;2153773;66;20232;-64
2021/12/30 05:14:04;;;;;;;46.92;15.65;;;9.50;99.90;;;;;;2153366;66;20389;-64
2021/12/30 05:16:48;;;;;;;51.33;17.38;;;9.60;99.90;;;;;;2147171;66;20331;-65
2021/12/30 05:19:32;;;;;;;;;;;9.70;99.90;;;;;;2132800;67;20187;-65
2021/12/30 05:22:13;;;;;;;55.88;18.98;;;9.80;99.90;;;;;;2139606;67;20051;-65
2021/12/30 05:24:58;;;;;;;51.30;18.13;;;9.90;99.90;;;;;;2139337;67;20822;-64
2021/12/30 05:27:43;;;;;;;62.95;19.50;;;9.90;99.90;;;;;;2139341;67;20706;-64
2021/12/30 05:30:25;;;;;;;55.17;21.60;;;10.00;99.90;;;;;;2138666;66;20249;-65
2021/12/30 05:33:07;;;;;;;60.35;20.30;;;10.60;99.90;;;;;;2146812;66;20170;-65
2021/12/30 05:35:49;;;;;;;60.05;20.55;;;10.10;99.90;;;;;;2168715;66;20376;-64
2021/12/30 05:38:32;;;;;;;67.95;21.88;;;10.20;99.90;;;;;;2161455;65;20706;-65
2021/12/30 05:41:17;;;;;;;50.08;22.23;;;10.20;99.90;;;;;;2165199;66;20219;-64
2021/12/30 05:44:02;;;;;;;63.28;23.00;;;10.20;99.90;;;;;;2151825;66;20198;-65
2021/12/30 05:46:46;;;;;;;52.78;22.10;;;10.20;99.90;;;;;;2148086;66;20321;-65
2021/12/30 05:49:29;;;;;;;52.45;20.63;;;10.30;99.90;;;;;;2154042;66;20720;-65
2021/12/30 05:52:13;;;;;;;;;;;10.30;99.90;;;;;;2154395;66;20304;-65
2021/12/30 05:54:55;;;;;;;41.58;17.45;;;10.30;99.90;;;;;;2143059;66;20055;-65
2021/12/30 05:57:37;;;;;;;42.30;16.40;;;10.40;99.90;;;;;;2141253;66;20299;-64
2021/12/30 06:00:22;;;;;;;33.20;14.88;;;10.40;99.90;;;;;;2143079;66;20182;-63
2021/12/30 06:03:07;;;;;;;21.98;11.27;;;10.50;99.90;;;;;;2125137;67;20728;-65
2021/12/30 06:05:50;;;;;;;30.05;12.77;;;10.50;99.90;;;;;;2137291;67;20261;-63
2021/12/30 06:08:31;;;;;;;31.77;14.32;;;10.50;99.90;;;;;;2132095;67;20858;-65
2021/12/30 06:11:13;;;;;;;31.13;12.82;;;10.50;99.90;;;;;;2126004;67;20236;-64
2021/12/30 06:13:55;;;;;;;26.60;10.77;;;10.50;99.90;;;;;;2118286;67;20422;-65
2021/12/30 06:16:38;;;;;;;24.25;12.18;;;10.50;99.90;;;;;;2127265;67;20322;-64
2021/12/30 06:19:23;;;;;;;21.75;10.27;;;10.60;99.90;;;;;;2125234;67;20478;-64
2021/12/30 06:22:10;;;;;;;21.27;11.77;;;10.60;99.90;;;;;;2112955;67;20177;-64
2021/12/30 06:24:56;;;;;;;32.50;12.85;;;10.60;99.90;;;;;;2121688;67;20761;-64
2021/12/30 06:27:40;;;;;;;;;;;10.60;99.90;;;;;;2134020;67;20234;-64
2021/12/30 06:30:23;;;;;;;25.90;14.02;;;10.60;99.90;;;;;;2118115;67;20072;-65
2021/12/30 06:33:05;;;;;;;25.98;13.73;;;10.60;99.90;;;;;;1889896;67;15154884;-64
2021/12/30 06:35:47;;;;;;;34.78;16.60;;;10.60;99.90;;;;;;2119091;67;20192;-62
2021/12/30 06:38:29;;;;;;;38.67;16.05;;;10.70;99.90;;;;;;2132368;67;20291;-64
2021/12/30 06:41:11;;;;;;;50.58;19.08;;;10.60;99.90;;;;;;2117470;67;20420;-64
2021/12/30 06:43:54;;;;;;;50.17;19.73;;;10.70;99.90;;;;;;2110560;67;20607;-62
2021/12/30 06:46:39;;;;;;;;;;;10.70;99.90;;;;;;2118092;67;20682;-62
2021/12/30 06:49:22;;;;;;;49.03;18.77;;;10.80;99.90;;;;;;2116889;67;20053;-63
2021/12/30 06:52:10;;;;;;;60.88;22.13;;;10.80;99.90;;;;;;2117142;67;20227;-63
2021/12/30 06:54:51;;;;;;;59.25;21.33;;;10.80;99.90;;;;;;2107465;67;20317;-63
2021/12/30 06:57:34;;;;;;;50.92;19.52;;;10.80;99.90;;;;;;2096238;68;20220;-63
2021/12/30 07:00:21;;;;;;;53.45;20.98;;;10.80;99.90;;;;;;2094916;67;20283;-64
2021/12/30 07:03:05;;;;;;;66.82;23.60;;;10.80;99.90;;;;;;2106082;67;20230;-63
2021/12/30 07:05:48;;;;;;;50.10;18.55;;;10.80;99.90;;;;;;2117497;67;20204;-64
2021/12/30 07:08:29;;;;;;;47.45;18.40;;;10.80;99.90;;;;;;2116196;67;20196;-64
2021/12/30 07:11:12;;;;;;;49.75;18.58;;;10.90;99.90;;;;;;2118039;67;20335;-63
2021/12/30 07:13:58;;;;;;;41.45;17.40;;;10.80;99.90;;;;;;2118178;67;20181;-65
2021/12/30 07:16:44;;;;;;;50.03;18.58;;;10.90;99.90;;;;;;2122317;67;20192;-67
2021/12/30 07:19:30;;;;;;;42.33;17.73;;;10.90;99.90;;;;;;2116142;67;20240;-64
2021/12/30 07:22:14;;;;;;;49.42;16.85;;;10.90;99.90;;;;;;2122256;67;20353;-66
2021/12/30 07:24:58;;;;;;;33.40;14.95;;;10.90;99.90;;;;;;2121283;67;20610;-63
2021/12/30 07:27:41;;;;;;;46.42;15.88;;;10.90;99.90;;;;;;2121756;67;20184;-63
2021/12/30 07:30:25;;;;;;;;;;;10.90;99.90;;;;;;2127276;67;20957;-64
2021/12/30 07:33:08;;;;;;;32.75;14.20;;;10.90;99.90;;;;;;2113388;67;20252;-63
2021/12/30 07:35:53;;;;;;;30.42;14.48;;;10.90;99.90;;;;;;2122991;67;20844;-63
2021/12/30 07:38:36;;;;;;;29.27;13.13;;;11.00;99.90;;;;;;2139191;66;20808;-63
2021/12/30 07:41:20;;;;;;;31.42;14.32;;;11.00;99.90;;;;;;2136099;66;21120;-63
2021/12/30 07:44:03;;;;;;;28.73;12.50;;;11.00;99.90;;;;;;2131314;67;20321;-64
2021/12/30 07:46:44;;;;;;;32.72;11.93;;;11.00;99.90;;;;;;2127550;67;20325;-62
2021/12/30 07:49:26;;;;;;;20.95;11.05;;;11.00;99.90;;;;;;2126490;66;20260;-63
2021/12/30 07:52:10;;;;;;;22.10;10.98;;;11.10;99.90;;;;;;2108282;67;20821;-63
2021/12/30 07:54:54;;;;;;;19.45;11.20;;;11.00;99.90;;;;;;2124738;67;20197;-63
2021/12/30 07:57:37;;;;;;;24.75;11.63;;;11.10;99.90;;;;;;2124625;67;20328;-63
2021/12/30 08:00:20;;;;;;;27.98;12.52;;;11.10;99.90;;;;;;2138964;66;20726;-64
2021/12/30 08:03:06;;;;;;;23.58;12.20;;;11.10;99.90;;;;;;2135722;67;20209;-64
2021/12/30 08:05:51;;;;;;;15.48;8.55;;;11.10;99.90;;;;;;2126834;67;20163;-66
2021/12/30 08:08:34;;;;;;;19.60;9.50;;;11.20;99.90;;;;;;2130174;67;20183;-63
2021/12/30 08:11:18;;;;;;;14.35;9.05;;;11.10;99.90;;;;;;2140533;66;20244;-63
2021/12/30 08:14:00;;;;;;;19.55;10.93;;;11.10;99.90;;;;;;2143124;66;20349;-64
2021/12/30 08:16:41;;;;;;;21.48;10.05;;;11.20;99.90;;;;;;2131382;67;20195;-63
2021/12/30 08:19:23;;;;;;;15.15;8.95;;;11.10;99.90;;;;;;2124252;67;20853;-63
2021/12/30 08:22:05;;;;;;;19.38;11.02;;;11.20;99.90;;;;;;2145531;66;20338;-64
2021/12/30 08:24:47;;;;;;;13.15;8.10;;;11.20;99.90;;;;;;2133665;67;20325;-66
2021/12/30 08:27:30;;;;;;;13.40;8.30;;;11.20;99.90;;;;;;2132353;67;20371;-65
2021/12/30 08:30:18;;;;;;;10.50;6.50;;;11.20;99.90;;;;;;2117705;67;20413;-63
2021/12/30 08:33:01;;;;;;;10.60;7.17;;;11.30;99.90;;;;;;2111348;67;20241;-64
2021/12/30 08:35:46;;;;;;;;;;;11.30;99.90;;;;;;2110253;67;20451;-63
2021/12/30 08:38:30;;;;;;;9.82;6.07;;;11.30;99.90;;;;;;2117722;67;20069;-63
2021/12/30 08:41:12;;;;;;;11.07;7.50;;;11.30;99.90;;;;;;2109641;67;20326;-64
2021/12/30 08:43:55;;;;;;;12.70;7.28;;;11.30;99.90;;;;;;2103395;67;20438;-63
2021/12/30 08:46:40;;;;;;;;;;;11.30;99.90;;;;;;2097071;68;20771;-63
2021/12/30 08:49:27;;;;;;;14.98;8.85;;;11.30;99.90;;;;;;2105937;67;20256;-63
2021/12/30 08:52:13;;;;;;;15.23;9.10;;;11.40;99.90;;;;;;2104615;67;20313;-63
2021/12/30 08:54:56;;;;;;;18.80;9.93;;;11.40;99.90;;;;;;2105238;67;20383;-63
2021/12/30 08:57:49;;;;;;;17.25;10.38;;;11.40;99.90;;;;;;2120134;67;20699;-64
2021/12/30 09:00:38;;;;;;;17.77;10.18;;;11.40;99.90;;;;;;2131822;67;20219;-62
2021/12/30 09:03:23;;;;;;;17.00;9.45;;;11.40;99.90;;;;;;2131889;67;20316;-63
2021/12/30 09:06:08;;;;;;;18.95;9.70;;;11.40;99.90;;;;;;2136694;67;20265;-63
2021/12/30 09:08:50;;;;;;;16.33;9.65;;;11.40;99.90;;;;;;2113400;67;20323;-64
2021/12/30 09:11:32;;;;;;;16.90;9.20;;;11.40;99.90;;;;;;2134681;66;20257;-63
2021/12/30 09:14:14;;;;;;;22.90;10.48;;;11.50;99.90;;;;;;2145785;66;20198;-63
2021/12/30 09:16:56;;;;;;;18.77;9.27;;;11.30;99.90;;;;;;2142793;66;20427;-64
2021/12/30 09:19:38;;;;;;;22.88;9.77;;;11.40;99.90;;;;;;2120521;67;20850;-64
2021/12/30 09:22:22;;;;;;;23.98;10.18;;;11.40;99.90;;;;;;2131084;67;20292;-64
2021/12/30 09:25:09;;;;;;;19.48;10.20;;;11.40;99.90;;;;;;2131290;67;20247;-64
2021/12/30 09:27:54;;;;;;;25.17;11.30;;;11.30;99.90;;;;;;2146498;66;20274;-64
2021/12/30 09:30:36;;;;;;;24.17;12.23;;;11.30;99.90;;;;;;2131785;67;20242;-64
2021/12/30 09:33:17;;;;;;;27.30;11.98;;;11.30;99.90;;;;;;2144270;66;20170;-63
2021/12/30 09:36:02;;;;;;;27.50;12.50;;;11.30;99.90;;;;;;2136374;66;20183;-63
2021/12/30 09:38:45;;;;;;;23.75;11.25;;;11.40;99.90;;;;;;2134523;67;20425;-64
2021/12/30 09:41:29;;;;;;;24.83;12.10;;;11.30;99.90;;;;;;2135348;67;20316;-64
2021/12/30 09:44:12;;;;;;;21.95;11.68;;;11.30;99.90;;;;;;2144913;66;20527;-64
2021/12/30 09:46:55;;;;;;;21.33;11.50;;;11.40;99.90;;;;;;2133020;66;20230;-64
2021/12/30 09:49:40;;;;;;;23.80;11.52;;;11.40;99.90;;;;;;2140979;66;20282;-63
2021/12/30 09:52:26;;;;;;;28.15;12.63;;;11.30;99.90;;;;;;2147203;66;20376;-64
2021/12/30 09:55:11;;;;;;;21.35;12.32;;;11.40;99.90;;;;;;2144870;66;20335;-64
2021/12/30 09:57:55;;;;;;;20.88;13.32;;;11.40;99.90;;;;;;2132377;67;20374;-64
2021/12/30 10:00:38;;;;;;;27.02;13.20;;;11.40;99.90;;;;;;2138994;67;20327;-63
2021/12/30 10:03:20;;;;;;;26.42;11.43;;;11.40;99.90;;;;;;2145402;66;20244;-63
2021/12/30 10:06:14;;;;;;;24.17;11.40;;;11.40;99.90;;;;;;2138632;66;20261;-63
2021/12/30 10:09:10;;;;;;;29.90;13.93;;;11.40;99.90;;;;;;2147160;66;20174;-64
2021/12/30 10:12:00;;;;;;;27.52;11.90;;;11.40;99.90;;;;;;2146815;66;20319;-64
2021/12/30 10:14:43;;;;;;;32.88;12.80;;;11.40;99.90;;;;;;2133535;67;20201;-62
2021/12/30 10:17:32;;;;;;;34.45;13.18;;;11.40;99.90;;;;;;2109347;67;20795;-64
2021/12/30 10:20:25;;;;;;;21.98;10.23;;;11.40;99.90;;;;;;2115183;67;20162;-64
2021/12/30 10:23:13;;;;;;;21.88;9.25;;;11.50;99.90;;;;;;2121838;67;20344;-64
2021/12/30 10:25:58;;;;;;;26.02;11.02;;;11.40;99.90;;;;;;2130318;67;20347;-64
2021/12/30 10:28:43;;;;;;;27.80;10.73;;;11.40;99.90;;;;;;2129975;67;20352;-65
2021/12/30 10:31:28;;;;;;;31.13;10.52;;;11.40;99.90;;;;;;2138639;66;20300;-63
2021/12/30 10:34:12;;;;;;;23.83;11.18;;;11.40;99.90;;;;;;2141253;66;20323;-65
2021/12/30 10:36:54;;;;;;;28.83;12.50;;;11.40;99.90;;;;;;2138815;66;20768;-63
2021/12/30 10:39:41;;;;;;;30.85;11.57;;;11.40;99.90;;;;;;2117468;67;20242;-64
2021/12/30 10:42:30;;;;;;;37.70;14.77;;;11.40;99.90;;;;;;2116639;67;20378;-64
2021/12/30 10:45:12;;;;;;;31.08;12.50;;;11.40;99.90;;;;;;2120165;67;20205;-64
2021/12/30 10:47:55;;;;;;;28.85;13.75;;;11.40;99.90;;;;;;2116536;67;20252;-64
2021/12/30 10:50:44;;;;;;;30.00;12.57;;;11.40;99.90;;;;;;2124225;67;20503;-65
2021/12/30 10:53:30;;;;;;;28.92;12.25;;;11.40;99.90;;;;;;2127956;67;20234;-63
2021/12/30 10:56:24;;;;;;;29.88;12.02;;;11.40;99.90;;;;;;2123322;67;20741;-65
2021/12/30 10:59:26;;;;;;;41.13;14.57;;;11.40;99.90;;;;;;2124938;67;20462;-64
2021/12/30 11:02:18;;;;;;;27.38;12.15;;;11.40;99.90;;;;;;2132079;67;20293;-64
2021/12/30 11:05:07;;;;;;;27.73;10.75;;;11.40;99.90;;;;;;2134090;66;20802;-63
2021/12/30 11:07:52;;;;;;;35.78;11.25;;;11.40;99.90;;;;;;2145829;66;20184;-66
2021/12/30 11:10:38;;;;;;;30.67;11.02;;;11.40;99.90;;;;;;2154001;66;20196;-65
2021/12/30 11:13:23;;;;;;;33.35;12.25;;;11.40;99.90;;;;;;2154986;66;20374;-64
2021/12/30 11:16:08;;;;;;;32.50;11.98;;;11.40;99.90;;;;;;2146687;66;20335;-67
2021/12/30 11:18:51;;;;;;;33.28;12.52;;;11.40;99.90;;;;;;2149352;66;20189;-65
2021/12/30 11:21:41;;;;;;;32.50;12.82;;;11.40;99.90;;;;;;2119366;67;20326;-64
2021/12/30 11:24:24;;;;;;;45.28;13.88;;;11.40;99.90;;;;;;2123326;67;20305;-65
2021/12/30 11:27:10;;;;;;;43.13;14.85;;;11.40;99.90;;;;;;2127401;67;20589;-65
2021/12/30 11:29:56;;;;;;;34.85;13.00;;;11.40;99.90;;;;;;2144555;66;20185;-64
2021/12/30 11:32:43;;;;;;;38.70;14.32;;;11.30;99.90;;;;;;2151348;66;20333;-64
2021/12/30 11:35:26;;;;;;;47.35;13.45;;;11.40;99.90;;;;;;2152349;66;20432;-64
2021/12/30 11:38:10;;;;;;;39.70;15.23;;;11.40;99.90;;;;;;2130804;67;20260;-64
2021/12/30 11:40:54;;;;;;;40.63;14.90;;;11.40;99.90;;;;;;2127109;67;20217;-65
2021/12/30 11:43:44;;;;;;;45.95;14.80;;;11.40;99.90;;;;;;2126418;67;20663;-64
2021/12/30 11:46:48;;;;;;;41.85;15.32;;;11.40;99.90;;;;;;2131062;67;20400;-65
2021/12/30 11:49:58;;;;;;;49.70;14.77;;;11.40;99.90;;;;;;2128206;67;20778;-63
2021/12/30 11:53:08;;;;;;;49.25;16.17;;;11.40;99.90;;;;;;2135805;67;20203;-66
2021/12/30 11:56:04;;;;;;;49.60;14.50;;;11.40;99.90;;;;;;2127475;67;20195;-65
2021/12/30 11:58:51;;;;;;;41.67;15.25;;;11.40;99.90;;;;;;2119300;67;20722;-64
2021/12/30 12:01:33;;;;;;;57.33;14.60;;;11.40;99.90;;;;;;2125570;67;20708;-64
2021/12/30 12:04:17;;;;;;;38.40;12.02;;;11.40;99.90;;;;;;2118645;67;20371;-65
2021/12/30 12:07:02;;;;;;;36.20;12.07;;;11.40;99.90;;;;;;2134253;66;20333;-65
2021/12/30 12:09:43;;;;;;;43.28;12.20;;;11.40;99.90;;;;;;2137194;67;20251;-65
2021/12/30 12:12:32;;;;;;;29.98;10.10;;;11.40;99.90;;;;;;2119963;67;20221;-65
2021/12/30 12:15:14;;;;;;;36.75;11.73;;;11.40;99.90;;;;;;2119763;67;20417;-64
2021/12/30 12:18:29;;;;;;;42.20;13.02;;;11.50;99.90;;;;;;2121304;67;20274;-65
2021/12/30 12:21:11;;;;;;;39.67;12.30;;;11.50;99.90;;;;;;2123560;67;20792;-64
2021/12/30 12:23:53;;;;;;;43.33;11.45;;;11.50;99.90;;;;;;2096326;67;20361;-64
2021/12/30 12:26:39;;;;;;;32.95;10.93;;;11.60;99.90;;;;;;2104617;67;20202;-65
2021/12/30 12:29:42;;;;;;;35.03;11.60;;;11.60;99.90;;;;;;2115620;67;20305;-64
2021/12/30 12:32:29;;;;;;;33.60;9.68;;;11.60;99.90;;;;;;2128034;67;20262;-63
2021/12/30 12:35:22;;;;;;;41.30;11.27;;;11.60;99.90;;;;;;2126495;67;20234;-64
2021/12/30 12:38:09;;;;;;;43.20;10.88;;;11.60;99.90;;;;;;2121136;67;20228;-63
2021/12/30 12:40:54;;;;;;;27.88;11.50;;;11.70;99.90;;;;;;2125861;67;20327;-64
2021/12/30 12:43:38;;;;;;;38.47;10.10;;;11.60;99.90;;;;;;2125276;67;20396;-65
2021/12/30 12:46:47;;;;;;;36.47;10.88;;;11.60;99.90;;;;;;2128691;67;20180;-64
2021/12/30 12:49:33;;;;;;;37.10;9.48;;;11.70;99.90;;;;;;2129801;67;20376;-65
2021/12/30 12:52:17;;;;;;;39.88;10.05;;;11.70;99.90;;;;;;2123093;67;20799;-63
2021/12/30 12:55:00;;;;;;;;;;;11.70;99.90;;;;;;2132769;66;20213;-65
2021/12/30 12:57:43;;;;;;;38.85;10.32;;;11.70;99.90;;;;;;2137115;67;20200;-64
2021/12/30 13:00:26;;;;;;;40.60;12.52;;;11.70;99.90;;;;;;2144632;66;20182;-66
2021/12/30 13:03:09;;;;;;;;;;;11.70;99.90;;;;;;2147280;66;20339;-64
2021/12/30 13:05:52;;;;;;;34.25;9.32;;;11.70;99.90;;;;;;2130740;67;20144;-64
2021/12/30 13:08:38;;;;;;;30.02;9.48;;;11.70;99.90;;;;;;2121325;67;20222;-64
2021/12/30 13:11:33;;;;;;;31.83;9.35;;;12.20;99.90;;;;;;2127981;67;20454;-63
2021/12/30 13:14:32;;;;;;;38.22;11.20;;;11.70;99.90;;;;;;2122115;67;20292;-65
2021/12/30 13:17:14;;;;;;;35.97;9.60;;;11.70;99.90;;;;;;2131941;67;20234;-64
2021/12/30 13:20:03;;;;;;;30.23;8.50;;;11.70;99.90;;;;;;2131456;67;20814;-65
2021/12/30 13:22:56;;;;;;;29.73;8.60;;;11.70;99.90;;;;;;2134131;66;20179;-64
2021/12/30 13:25:41;;;;;;;40.50;12.43;;;11.70;99.90;;;;;;2135261;67;20739;-64
2021/12/30 13:28:23;;;;;;;37.90;11.15;;;11.70;99.90;;;;;;2144872;66;20296;-65
2021/12/30 13:31:14;;;;;;;40.65;12.30;;;11.60;99.90;;;;;;2145713;66;20366;-63
2021/12/30 13:34:01;;;;;;;35.22;9.82;;;11.70;99.90;;;;;;2137295;66;20270;-64
2021/12/30 13:36:46;;;;;;;32.50;9.88;;;11.60;99.90;;;;;;2128964;67;20291;-63
2021/12/30 13:39:35;;;;;;;24.75;7.82;;;11.60;99.90;;;;;;2121155;67;20223;-64
2021/12/30 13:42:18;;;;;;;30.00;9.75;;;11.60;99.90;;;;;;2130544;67;20314;-64
2021/12/30 13:45:03;;;;;;;36.45;11.63;;;11.60;99.90;;;;;;2133213;67;20284;-64
2021/12/30 13:47:45;;;;;;;26.40;9.45;;;11.70;99.90;;;;;;2126170;67;20176;-65
2021/12/30 13:50:27;;;;;;;32.63;9.48;;;11.60;99.90;;;;;;2127314;67;20232;-67
2021/12/30 13:53:14;;;;;;;25.25;9.30;;;11.70;99.90;;;;;;2140246;66;20262;-66
2021/12/30 13:56:01;;;;;;;34.33;9.32;;;11.60;99.90;;;;;;2147156;66;20215;-67
2021/12/30 13:58:46;;;;;;;32.80;10.13;;;11.70;99.90;;;;;;2151499;66;20205;-69
2021/12/30 14:01:34;;;;;;;38.47;9.98;;;11.60;99.90;;;;;;2144033;66;20207;-67
2021/12/30 14:04:18;;;;;;;34.28;9.82;;;11.60;99.90;;;;;;2146276;66;20256;-67
2021/12/30 14:07:02;;;;;;;27.88;10.48;;;11.70;99.90;;;;;;2153482;66;20247;-67